sensor_id;sensor_type;location;lat;lon;timestamp;temperature;humidity
54576;DHT22;40472;53.486;14.542;2022-11-09T00:01:21;11.00;99.90
54576;DHT22;40472;53.486;14.542;2022-11-09T00:03:47;11.00;99.90
54576;DHT22;40472;53.486;14.542;2022-11-09T00:06:13;11.00;99.90
54576;DHT22;40472;53.486;14.542;2022-11-09T00:08:39;11.00;99.90
54576;DHT22;40472;53.486;14.542;2022-11-09T00:11:10;11.00;99.90
54576;DHT22;40472;53.486;14.542;2022-11-09T00:13:37;10.90;99.90
54576;DHT22;40472;53.486;14.542;2022-11-09T00:16:05;10.90;99.90
54576;DHT22;40472;53.486;14.542;2022-11-09T00:18:31;10.90;99.90
54576;DHT22;40472;53.486;14.542;2022-11-09T00:20:58;11.00;99.90
54576;DHT22;40472;53.486;14.542;2022-11-09T00:23:24;11.00;99.90
54576;DHT22;40472;53.486;14.542;2022-11-09T00:25:49;11.00;99.90
54576;DHT22;40472;53.486;14.542;2022-11-09T00:28:15;11.00;99.90
54576;DHT22;40472;53.486;14.542;2022-11-09T00:30:41;11.00;99.90
54576;DHT22;40472;53.486;14.542;2022-11-09T00:33:07;10.90;99.90
54576;DHT22;40472;53.486;14.542;2022-11-09T00:35:33;10.90;99.90
54576;DHT22;40472;53.486;14.542;2022-11-09T00:37:58;10.90;99.90
54576;DHT22;40472;53.486;14.542;2022-11-09T00:40:24;10.90;99.90
54576;DHT22;40472;53.486;14.542;2022-11-09T00:42:50;10.90;99.90
54576;DHT22;40472;53.486;14.542;2022-11-09T00:45:16;10.90;99.90
54576;DHT22;40472;53.486;14.542;2022-11-09T00:47:43;10.90;99.90
54576;DHT22;40472;53.486;14.542;2022-11-09T00:50:09;10.80;99.90
54576;DHT22;40472;53.486;14.542;2022-11-09T00:52:34;10.80;99.90
54576;DHT22;40472;53.486;14.542;2022-11-09T00:55:00;10.80;99.90
54576;DHT22;40472;53.486;14.542;2022-11-09T00:57:26;10.80;99.90
54576;DHT22;40472;53.486;14.542;2022-11-09T00:59:51;10.80;99.90
54576;DHT22;40472;53.486;14.542;2022-11-09T01:02:18;10.70;99.90
54576;DHT22;40472;53.486;14.542;2022-11-09T01:04:44;10.70;99.90
54576;DHT22;40472;53.486;14.542;2022-11-09T01:07:10;10.70;99.90
54576;DHT22;40472;53.486;14.542;2022-11-09T01:09:35;10.70;99.90
54576;DHT22;40472;53.486;14.542;2022-11-09T01:12:01;10.70;99.90
54576;DHT22;40472;53.486;14.542;2022-11-09T01:14:27;10.60;99.90
54576;DHT22;40472;53.486;14.542;2022-11-09T01:16:53;10.60;99.90
54576;DHT22;40472;53.486;14.542;2022-11-09T01:19:18;10.60;99.90
54576;DHT22;40472;53.486;14.542;2022-11-09T01:21:44;10.50;99.90
54576;DHT22;40472;53.486;14.542;2022-11-09T01:24:10;10.50;99.90
54576;DHT22;40472;53.486;14.542;2022-11-09T01:26:36;10.50;99.90
54576;DHT22;40472;53.486;14.542;2022-11-09T01:29:01;10.50;99.90
54576;DHT22;40472;53.486;14.542;2022-11-09T01:31:27;10.50;99.90
54576;DHT22;40472;53.486;14.542;2022-11-09T01:33:53;10.50;99.90
54576;DHT22;40472;53.486;14.542;2022-11-09T01:36:21;10.50;99.90
54576;DHT22;40472;53.486;14.542;2022-11-09T01:38:47;10.50;99.90
54576;DHT22;40472;53.486;14.542;2022-11-09T01:41:20;10.50;99.90
54576;DHT22;40472;53.486;14.542;2022-11-09T01:44:02;10.50;99.90
54576;DHT22;40472;53.486;14.542;2022-11-09T01:46:51;10.50;99.90
54576;DHT22;40472;53.486;14.542;2022-11-09T01:49:36;10.50;99.90
54576;DHT22;40472;53.486;14.542;2022-11-09T01:54:56;10.50;99.90
54576;DHT22;40472;53.486;14.542;2022-11-09T01:57:33;10.50;99.90
54576;DHT22;40472;53.486;14.542;2022-11-09T02:00:05;10.50;99.90
54576;DHT22;40472;53.486;14.542;2022-11-09T02:02:33;10.50;99.90
54576;DHT22;40472;53.486;14.542;2022-11-09T02:05:04;10.60;99.90
54576;DHT22;40472;53.486;14.542;2022-11-09T02:07:32;10.60;99.90
54576;DHT22;40472;53.486;14.542;2022-11-09T02:10:11;10.60;99.90
54576;DHT22;40472;53.486;14.542;2022-11-09T02:12:38;10.60;99.90
54576;DHT22;40472;53.486;14.542;2022-11-09T02:15:05;10.60;99.90
54576;DHT22;40472;53.486;14.542;2022-11-09T02:17:33;10.50;99.90
54576;DHT22;40472;53.486;14.542;2022-11-09T02:19:59;10.50;99.90
54576;DHT22;40472;53.486;14.542;2022-11-09T02:22:25;10.50;99.90
54576;DHT22;40472;53.486;14.542;2022-11-09T02:24:51;10.50;99.90
54576;DHT22;40472;53.486;14.542;2022-11-09T02:27:18;10.50;99.90
54576;DHT22;40472;53.486;14.542;2022-11-09T02:29:46;10.50;99.90
54576;DHT22;40472;53.486;14.542;2022-11-09T02:32:21;10.60;99.90
54576;DHT22;40472;53.486;14.542;2022-11-09T02:34:48;10.70;99.90
54576;DHT22;40472;53.486;14.542;2022-11-09T02:37:53;10.70;99.90
54576;DHT22;40472;53.486;14.542;2022-11-09T02:40:22;10.60;99.90
54576;DHT22;40472;53.486;14.542;2022-11-09T02:42:49;10.70;99.90
54576;DHT22;40472;53.486;14.542;2022-11-09T02:45:15;10.70;99.90
54576;DHT22;40472;53.486;14.542;2022-11-09T02:47:41;10.70;99.90
54576;DHT22;40472;53.486;14.542;2022-11-09T02:50:07;10.70;99.90
54576;DHT22;40472;53.486;14.542;2022-11-09T02:52:33;10.70;99.90
54576;DHT22;40472;53.486;14.542;2022-11-09T02:54:58;10.80;99.90
54576;DHT22;40472;53.486;14.542;2022-11-09T02:57:24;10.80;99.90
54576;DHT22;40472;53.486;14.542;2022-11-09T02:59:50;10.70;99.90
54576;DHT22;40472;53.486;14.542;2022-11-09T03:02:16;10.80;99.90
54576;DHT22;40472;53.486;14.542;2022-11-09T03:04:41;10.80;99.90
54576;DHT22;40472;53.486;14.542;2022-11-09T03:07:07;10.80;99.90
54576;DHT22;40472;53.486;14.542;2022-11-09T03:09:33;10.70;99.90
54576;DHT22;40472;53.486;14.542;2022-11-09T03:11:58;10.70;99.90
54576;DHT22;40472;53.486;14.542;2022-11-09T03:14:44;10.70;99.90
54576;DHT22;40472;53.486;14.542;2022-11-09T03:17:10;10.80;99.90
54576;DHT22;40472;53.486;14.542;2022-11-09T03:19:35;10.80;99.90
54576;DHT22;40472;53.486;14.542;2022-11-09T03:22:01;10.70;99.90
54576;DHT22;40472;53.486;14.542;2022-11-09T03:24:27;10.70;99.90
54576;DHT22;40472;53.486;14.542;2022-11-09T03:26:52;10.60;99.90
54576;DHT22;40472;53.486;14.542;2022-11-09T03:29:18;10.60;99.90
54576;DHT22;40472;53.486;14.542;2022-11-09T03:31:43;10.60;99.90
54576;DHT22;40472;53.486;14.542;2022-11-09T03:34:09;10.50;99.90
54576;DHT22;40472;53.486;14.542;2022-11-09T03:36:35;10.50;99.90
54576;DHT22;40472;53.486;14.542;2022-11-09T03:39:00;10.40;99.90
54576;DHT22;40472;53.486;14.542;2022-11-09T03:41:26;10.50;99.90
54576;DHT22;40472;53.486;14.542;2022-11-09T03:43:52;10.40;99.90
54576;DHT22;40472;53.486;14.542;2022-11-09T03:46:17;10.40;99.90
54576;DHT22;40472;53.486;14.542;2022-11-09T03:48:43;10.40;99.90
54576;DHT22;40472;53.486;14.542;2022-11-09T03:51:09;10.30;99.90
54576;DHT22;40472;53.486;14.542;2022-11-09T03:53:34;10.30;99.90
54576;DHT22;40472;53.486;14.542;2022-11-09T03:56:00;10.40;99.90
54576;DHT22;40472;53.486;14.542;2022-11-09T03:58:26;10.40;99.90
54576;DHT22;40472;53.486;14.542;2022-11-09T04:00:51;10.40;99.90
54576;DHT22;40472;53.486;14.542;2022-11-09T04:03:17;10.40;99.90
54576;DHT22;40472;53.486;14.542;2022-11-09T04:05:43;10.40;99.90
54576;DHT22;40472;53.486;14.542;2022-11-09T04:08:08;10.30;99.90
54576;DHT22;40472;53.486;14.542;2022-11-09T04:10:34;10.20;99.90
54576;DHT22;40472;53.486;14.542;2022-11-09T04:13:00;10.20;99.90
54576;DHT22;40472;53.486;14.542;2022-11-09T04:15:25;10.10;99.90
54576;DHT22;40472;53.486;14.542;2022-11-09T04:17:58;10.10;99.90
54576;DHT22;40472;53.486;14.542;2022-11-09T04:20:26;10.10;99.90
54576;DHT22;40472;53.486;14.542;2022-11-09T04:22:58;10.10;99.90
54576;DHT22;40472;53.486;14.542;2022-11-09T04:25:24;10.10;99.90
54576;DHT22;40472;53.486;14.542;2022-11-09T04:27:57;10.10;99.90
54576;DHT22;40472;53.486;14.542;2022-11-09T04:30:24;10.10;99.90
54576;DHT22;40472;53.486;14.542;2022-11-09T04:32:52;10.10;99.90
54576;DHT22;40472;53.486;14.542;2022-11-09T04:35:18;10.10;99.90
54576;DHT22;40472;53.486;14.542;2022-11-09T04:37:55;10.10;99.90
54576;DHT22;40472;53.486;14.542;2022-11-09T04:40:22;10.10;99.90
54576;DHT22;40472;53.486;14.542;2022-11-09T04:42:48;10.10;99.90
54576;DHT22;40472;53.486;14.542;2022-11-09T04:45:14;10.20;99.90
54576;DHT22;40472;53.486;14.542;2022-11-09T04:47:40;10.10;99.90
54576;DHT22;40472;53.486;14.542;2022-11-09T04:50:06;10.20;99.90
54576;DHT22;40472;53.486;14.542;2022-11-09T04:52:32;10.20;99.90
54576;DHT22;40472;53.486;14.542;2022-11-09T04:54:58;10.20;99.90
54576;DHT22;40472;53.486;14.542;2022-11-09T04:57:23;10.20;99.90
54576;DHT22;40472;53.486;14.542;2022-11-09T04:59:49;10.30;99.90
54576;DHT22;40472;53.486;14.542;2022-11-09T05:02:15;10.30;99.90
54576;DHT22;40472;53.486;14.542;2022-11-09T05:08:04;10.30;99.90
54576;DHT22;40472;53.486;14.542;2022-11-09T05:10:30;10.30;99.90
54576;DHT22;40472;53.486;14.542;2022-11-09T05:13:04;10.30;99.90
54576;DHT22;40472;53.486;14.542;2022-11-09T05:15:30;10.30;99.90
54576;DHT22;40472;53.486;14.542;2022-11-09T05:17:56;10.30;99.90
54576;DHT22;40472;53.486;14.542;2022-11-09T05:20:23;10.30;99.90
54576;DHT22;40472;53.486;14.542;2022-11-09T05:22:48;10.30;99.90
54576;DHT22;40472;53.486;14.542;2022-11-09T05:25:33;10.30;99.90
54576;DHT22;40472;53.486;14.542;2022-11-09T05:27:59;10.40;99.90
54576;DHT22;40472;53.486;14.542;2022-11-09T05:30:25;10.40;99.90
54576;DHT22;40472;53.486;14.542;2022-11-09T05:32:50;10.40;99.90
54576;DHT22;40472;53.486;14.542;2022-11-09T05:35:16;10.40;99.90
54576;DHT22;40472;53.486;14.542;2022-11-09T05:37:45;10.40;99.90
54576;DHT22;40472;53.486;14.542;2022-11-09T05:40:11;10.40;99.90
54576;DHT22;40472;53.486;14.542;2022-11-09T05:42:40;10.40;99.90
54576;DHT22;40472;53.486;14.542;2022-11-09T05:45:08;10.40;99.90
54576;DHT22;40472;53.486;14.542;2022-11-09T05:47:42;10.40;99.90
54576;DHT22;40472;53.486;14.542;2022-11-09T05:50:10;10.40;99.90
54576;DHT22;40472;53.486;14.542;2022-11-09T05:52:36;10.30;99.90
54576;DHT22;40472;53.486;14.542;2022-11-09T05:55:02;10.30;99.90
54576;DHT22;40472;53.486;14.542;2022-11-09T05:57:28;10.30;99.90
54576;DHT22;40472;53.486;14.542;2022-11-09T05:59:54;10.30;99.90
54576;DHT22;40472;53.486;14.542;2022-11-09T06:02:20;10.30;99.90
54576;DHT22;40472;53.486;14.542;2022-11-09T06:04:46;10.30;99.90
54576;DHT22;40472;53.486;14.542;2022-11-09T06:07:12;10.30;99.90
54576;DHT22;40472;53.486;14.542;2022-11-09T06:09:38;10.30;99.90
54576;DHT22;40472;53.486;14.542;2022-11-09T06:12:04;10.30;99.90
54576;DHT22;40472;53.486;14.542;2022-11-09T06:14:29;10.40;99.90
54576;DHT22;40472;53.486;14.542;2022-11-09T06:16:55;10.40;99.90
54576;DHT22;40472;53.486;14.542;2022-11-09T06:19:21;10.40;99.90
54576;DHT22;40472;53.486;14.542;2022-11-09T06:21:50;10.40;99.90
54576;DHT22;40472;53.486;14.542;2022-11-09T06:24:26;10.40;99.90
54576;DHT22;40472;53.486;14.542;2022-11-09T06:30:24;10.50;99.90
54576;DHT22;40472;53.486;14.542;2022-11-09T06:32:49;10.50;99.90
54576;DHT22;40472;53.486;14.542;2022-11-09T06:35:15;10.50;99.90
54576;DHT22;40472;53.486;14.542;2022-11-09T06:37:41;10.50;99.90
54576;DHT22;40472;53.486;14.542;2022-11-09T06:40:07;10.50;99.90
54576;DHT22;40472;53.486;14.542;2022-11-09T06:42:33;10.50;99.90
54576;DHT22;40472;53.486;14.542;2022-11-09T06:44:59;10.50;99.90
54576;DHT22;40472;53.486;14.542;2022-11-09T06:47:26;10.50;99.90
54576;DHT22;40472;53.486;14.542;2022-11-09T06:49:53;10.50;99.90
54576;DHT22;40472;53.486;14.542;2022-11-09T06:52:19;10.50;99.90
54576;DHT22;40472;53.486;14.542;2022-11-09T06:54:45;10.50;99.90
54576;DHT22;40472;53.486;14.542;2022-11-09T06:57:10;10.40;99.90
54576;DHT22;40472;53.486;14.542;2022-11-09T06:59:36;10.40;99.90
54576;DHT22;40472;53.486;14.542;2022-11-09T07:02:02;10.40;99.90
54576;DHT22;40472;53.486;14.542;2022-11-09T07:04:27;10.40;99.90
54576;DHT22;40472;53.486;14.542;2022-11-09T07:06:53;10.40;99.90
54576;DHT22;40472;53.486;14.542;2022-11-09T07:09:19;10.40;99.90
54576;DHT22;40472;53.486;14.542;2022-11-09T07:11:47;10.40;99.90
54576;DHT22;40472;53.486;14.542;2022-11-09T07:14:12;10.40;99.90
54576;DHT22;40472;53.486;14.542;2022-11-09T07:16:38;10.40;99.90
54576;DHT22;40472;53.486;14.542;2022-11-09T07:19:04;10.40;99.90
54576;DHT22;40472;53.486;14.542;2022-11-09T07:21:30;10.50;99.90
54576;DHT22;40472;53.486;14.542;2022-11-09T07:23:56;10.50;99.90
54576;DHT22;40472;53.486;14.542;2022-11-09T07:26:21;10.60;99.90
54576;DHT22;40472;53.486;14.542;2022-11-09T07:28:47;10.60;99.90
54576;DHT22;40472;53.486;14.542;2022-11-09T07:31:13;10.70;99.90
54576;DHT22;40472;53.486;14.542;2022-11-09T07:33:39;10.80;99.90
54576;DHT22;40472;53.486;14.542;2022-11-09T07:36:05;10.80;99.90
54576;DHT22;40472;53.486;14.542;2022-11-09T07:38:31;10.80;99.90
54576;DHT22;40472;53.486;14.542;2022-11-09T07:40:57;10.90;99.90
54576;DHT22;40472;53.486;14.542;2022-11-09T07:43:26;10.80;99.90
54576;DHT22;40472;53.486;14.542;2022-11-09T07:45:53;10.90;99.90
54576;DHT22;40472;53.486;14.542;2022-11-09T07:48:19;11.00;99.90
54576;DHT22;40472;53.486;14.542;2022-11-09T07:50:45;11.00;99.90
54576;DHT22;40472;53.486;14.542;2022-11-09T07:53:13;11.10;99.90
54576;DHT22;40472;53.486;14.542;2022-11-09T07:55:40;11.10;99.90
54576;DHT22;40472;53.486;14.542;2022-11-09T07:58:09;11.10;99.90
54576;DHT22;40472;53.486;14.542;2022-11-09T08:00:37;11.20;99.90
54576;DHT22;40472;53.486;14.542;2022-11-09T08:03:03;11.20;99.90
54576;DHT22;40472;53.486;14.542;2022-11-09T08:05:29;11.20;99.90
54576;DHT22;40472;53.486;14.542;2022-11-09T08:07:56;11.20;99.90
54576;DHT22;40472;53.486;14.542;2022-11-09T08:10:24;11.20;99.90
54576;DHT22;40472;53.486;14.542;2022-11-09T08:12:55;11.20;99.90
54576;DHT22;40472;53.486;14.542;2022-11-09T08:15:21;11.20;99.90
54576;DHT22;40472;53.486;14.542;2022-11-09T08:17:46;11.20;99.90
54576;DHT22;40472;53.486;14.542;2022-11-09T08:20:12;11.20;99.90
54576;DHT22;40472;53.486;14.542;2022-11-09T08:22:42;11.20;99.90
54576;DHT22;40472;53.486;14.542;2022-11-09T08:25:10;11.20;99.90
54576;DHT22;40472;53.486;14.542;2022-11-09T08:27:36;11.20;99.90
54576;DHT22;40472;53.486;14.542;2022-11-09T08:30:06;11.30;99.90
54576;DHT22;40472;53.486;14.542;2022-11-09T08:32:33;11.40;99.90
54576;DHT22;40472;53.486;14.542;2022-11-09T08:34:59;11.40;99.90
54576;DHT22;40472;53.486;14.542;2022-11-09T08:37:24;11.50;99.90
54576;DHT22;40472;53.486;14.542;2022-11-09T08:39:50;11.60;99.90
54576;DHT22;40472;53.486;14.542;2022-11-09T08:42:16;11.70;99.90
54576;DHT22;40472;53.486;14.542;2022-11-09T08:44:42;11.80;99.90
54576;DHT22;40472;53.486;14.542;2022-11-09T08:47:07;11.80;99.90
54576;DHT22;40472;53.486;14.542;2022-11-09T08:49:33;11.90;99.90
54576;DHT22;40472;53.486;14.542;2022-11-09T08:51:59;11.90;99.90
54576;DHT22;40472;53.486;14.542;2022-11-09T08:54:25;12.00;99.90
54576;DHT22;40472;53.486;14.542;2022-11-09T08:56:54;12.10;99.90
54576;DHT22;40472;53.486;14.542;2022-11-09T08:59:21;12.20;99.90
54576;DHT22;40472;53.486;14.542;2022-11-09T09:01:47;12.30;99.90
54576;DHT22;40472;53.486;14.542;2022-11-09T09:04:12;12.30;99.90
54576;DHT22;40472;53.486;14.542;2022-11-09T09:06:38;12.30;99.90
54576;DHT22;40472;53.486;14.542;2022-11-09T09:09:04;12.30;99.90
54576;DHT22;40472;53.486;14.542;2022-11-09T09:11:30;12.30;99.90
54576;DHT22;40472;53.486;14.542;2022-11-09T09:13:55;12.20;99.90
54576;DHT22;40472;53.486;14.542;2022-11-09T09:16:21;12.20;99.90
54576;DHT22;40472;53.486;14.542;2022-11-09T09:18:47;12.20;99.90
54576;DHT22;40472;53.486;14.542;2022-11-09T09:21:13;12.30;99.90
54576;DHT22;40472;53.486;14.542;2022-11-09T09:23:39;12.30;99.90
54576;DHT22;40472;53.486;14.542;2022-11-09T09:26:05;12.30;99.90
54576;DHT22;40472;53.486;14.542;2022-11-09T09:28:31;12.20;99.90
54576;DHT22;40472;53.486;14.542;2022-11-09T09:31:01;12.10;99.90
54576;DHT22;40472;53.486;14.542;2022-11-09T09:33:27;12.00;99.90
54576;DHT22;40472;53.486;14.542;2022-11-09T09:35:57;12.00;99.90
54576;DHT22;40472;53.486;14.542;2022-11-09T09:38:24;12.10;99.90
54576;DHT22;40472;53.486;14.542;2022-11-09T09:43:40;12.00;99.90
54576;DHT22;40472;53.486;14.542;2022-11-09T09:49:00;11.90;99.90
54576;DHT22;40472;53.486;14.542;2022-11-09T09:51:58;11.80;99.90
54576;DHT22;40472;53.486;14.542;2022-11-09T09:54:49;11.80;99.90
54576;DHT22;40472;53.486;14.542;2022-11-09T09:57:21;11.80;99.90
54576;DHT22;40472;53.486;14.542;2022-11-09T09:59:50;11.80;99.90
54576;DHT22;40472;53.486;14.542;2022-11-09T10:02:26;11.80;99.90
54576;DHT22;40472;53.486;14.542;2022-11-09T10:04:54;11.70;99.90
54576;DHT22;40472;53.486;14.542;2022-11-09T10:10:02;11.70;99.90
54576;DHT22;40472;53.486;14.542;2022-11-09T10:15:41;11.60;99.90
54576;DHT22;40472;53.486;14.542;2022-11-09T10:21:25;11.50;99.90
54576;DHT22;40472;53.486;14.542;2022-11-09T10:27:00;11.70;99.90
54576;DHT22;40472;53.486;14.542;2022-11-09T10:29:46;11.80;99.90
54576;DHT22;40472;53.486;14.542;2022-11-09T10:32:18;11.90;99.90
54576;DHT22;40472;53.486;14.542;2022-11-09T10:37:42;12.10;99.90
54576;DHT22;40472;53.486;14.542;2022-11-09T10:42:35;12.10;99.90
54576;DHT22;40472;53.486;14.542;2022-11-09T10:45:12;12.10;99.90
54576;DHT22;40472;53.486;14.542;2022-11-09T10:47:47;12.00;99.90
54576;DHT22;40472;53.486;14.542;2022-11-09T10:50:39;11.90;99.90
54576;DHT22;40472;53.486;14.542;2022-11-09T10:53:15;11.80;99.90
54576;DHT22;40472;53.486;14.542;2022-11-09T10:55:51;11.80;99.90
54576;DHT22;40472;53.486;14.542;2022-11-09T11:01:15;11.90;99.90
54576;DHT22;40472;53.486;14.542;2022-11-09T11:03:42;11.90;99.90
54576;DHT22;40472;53.486;14.542;2022-11-09T11:06:17;11.90;99.90
54576;DHT22;40472;53.486;14.542;2022-11-09T11:08:49;12.00;99.90
54576;DHT22;40472;53.486;14.542;2022-11-09T11:11:19;11.90;99.90
54576;DHT22;40472;53.486;14.542;2022-11-09T11:13:46;12.00;99.90
54576;DHT22;40472;53.486;14.542;2022-11-09T11:18:48;12.00;99.90
54576;DHT22;40472;53.486;14.542;2022-11-09T11:21:17;12.00;99.90
54576;DHT22;40472;53.486;14.542;2022-11-09T11:23:43;12.20;99.90
54576;DHT22;40472;53.486;14.542;2022-11-09T11:28:55;12.10;99.90
54576;DHT22;40472;53.486;14.542;2022-11-09T11:31:22;12.10;99.90
54576;DHT22;40472;53.486;14.542;2022-11-09T11:33:48;12.00;99.90
54576;DHT22;40472;53.486;14.542;2022-11-09T11:36:19;12.00;99.90
54576;DHT22;40472;53.486;14.542;2022-11-09T11:47:23;11.90;99.90
54576;DHT22;40472;53.486;14.542;2022-11-09T11:53:04;11.90;99.90
54576;DHT22;40472;53.486;14.542;2022-11-09T11:56:10;11.90;99.90
54576;DHT22;40472;53.486;14.542;2022-11-09T11:59:08;12.00;99.90
54576;DHT22;40472;53.486;14.542;2022-11-09T12:01:47;12.10;99.90
54576;DHT22;40472;53.486;14.542;2022-11-09T12:07:08;12.40;99.90
54576;DHT22;40472;53.486;14.542;2022-11-09T12:10:17;12.50;99.90
54576;DHT22;40472;53.486;14.542;2022-11-09T12:15:44;12.60;99.90
54576;DHT22;40472;53.486;14.542;2022-11-09T12:18:34;12.60;99.90
54576;DHT22;40472;53.486;14.542;2022-11-09T12:37:07;13.00;99.90
54576;DHT22;40472;53.486;14.542;2022-11-09T12:39:46;12.90;99.90
54576;DHT22;40472;53.486;14.542;2022-11-09T12:42:36;12.90;99.90
54576;DHT22;40472;53.486;14.542;2022-11-09T12:47:33;12.90;99.90
54576;DHT22;40472;53.486;14.542;2022-11-09T12:50:00;12.90;99.90
54576;DHT22;40472;53.486;14.542;2022-11-09T12:52:28;12.80;99.90
54576;DHT22;40472;53.486;14.542;2022-11-09T12:54:55;12.80;99.90
54576;DHT22;40472;53.486;14.542;2022-11-09T12:57:24;12.80;99.90
54576;DHT22;40472;53.486;14.542;2022-11-09T12:59:53;12.80;99.90
54576;DHT22;40472;53.486;14.542;2022-11-09T13:04:59;12.90;99.90
54576;DHT22;40472;53.486;14.542;2022-11-09T13:07:46;13.00;99.90
54576;DHT22;40472;53.486;14.542;2022-11-09T13:10:35;13.00;99.90
54576;DHT22;40472;53.486;14.542;2022-11-09T13:15:38;13.00;99.90
54576;DHT22;40472;53.486;14.542;2022-11-09T13:18:22;12.90;99.90
54576;DHT22;40472;53.486;14.542;2022-11-09T13:20:49;12.90;99.90
54576;DHT22;40472;53.486;14.542;2022-11-09T13:26:00;12.90;99.90
54576;DHT22;40472;53.486;14.542;2022-11-09T13:30:58;12.90;99.90
54576;DHT22;40472;53.486;14.542;2022-11-09T13:33:29;13.00;99.90
54576;DHT22;40472;53.486;14.542;2022-11-09T13:35:58;13.10;99.90
54576;DHT22;40472;53.486;14.542;2022-11-09T13:38:31;13.10;99.90
54576;DHT22;40472;53.486;14.542;2022-11-09T13:40:58;13.20;99.90
54576;DHT22;40472;53.486;14.542;2022-11-09T13:43:29;13.20;99.90
54576;DHT22;40472;53.486;14.542;2022-11-09T13:46:24;13.20;99.90
54576;DHT22;40472;53.486;14.542;2022-11-09T13:48:52;13.20;99.90
54576;DHT22;40472;53.486;14.542;2022-11-09T14:01:56;13.20;99.90
54576;DHT22;40472;53.486;14.542;2022-11-09T14:04:48;13.20;99.90
54576;DHT22;40472;53.486;14.542;2022-11-09T14:07:28;13.20;99.90
54576;DHT22;40472;53.486;14.542;2022-11-09T14:10:11;13.10;99.90
54576;DHT22;40472;53.486;14.542;2022-11-09T14:18:34;13.00;99.90
54576;DHT22;40472;53.486;14.542;2022-11-09T14:23:50;13.00;99.90
54576;DHT22;40472;53.486;14.542;2022-11-09T14:26:27;13.00;99.90
54576;DHT22;40472;53.486;14.542;2022-11-09T14:28:57;13.00;99.90
54576;DHT22;40472;53.486;14.542;2022-11-09T14:31:28;13.00;99.90
54576;DHT22;40472;53.486;14.542;2022-11-09T14:34:03;13.00;99.90
54576;DHT22;40472;53.486;14.542;2022-11-09T14:36:44;12.90;99.90
54576;DHT22;40472;53.486;14.542;2022-11-09T14:39:31;12.90;99.90
54576;DHT22;40472;53.486;14.542;2022-11-09T14:42:01;12.90;99.90
54576;DHT22;40472;53.486;14.542;2022-11-09T14:48:23;12.80;99.90
54576;DHT22;40472;53.486;14.542;2022-11-09T14:50:55;12.80;99.90
54576;DHT22;40472;53.486;14.542;2022-11-09T14:53:34;12.70;99.90
54576;DHT22;40472;53.486;14.542;2022-11-09T14:56:04;12.60;99.90
54576;DHT22;40472;53.486;14.542;2022-11-09T14:58:33;12.60;99.90
54576;DHT22;40472;53.486;14.542;2022-11-09T15:01:19;12.40;99.90
54576;DHT22;40472;53.486;14.542;2022-11-09T15:04:04;12.40;99.90
54576;DHT22;40472;53.486;14.542;2022-11-09T15:06:32;12.40;99.90
54576;DHT22;40472;53.486;14.542;2022-11-09T15:09:03;12.40;99.90
54576;DHT22;40472;53.486;14.542;2022-11-09T15:11:38;12.40;99.90
54576;DHT22;40472;53.486;14.542;2022-11-09T15:16:45;12.20;99.90
54576;DHT22;40472;53.486;14.542;2022-11-09T15:19:48;12.10;99.90
54576;DHT22;40472;53.486;14.542;2022-11-09T15:22:55;12.00;99.90
54576;DHT22;40472;53.486;14.542;2022-11-09T15:33:20;11.70;99.90
54576;DHT22;40472;53.486;14.542;2022-11-09T15:35:57;11.70;99.90
54576;DHT22;40472;53.486;14.542;2022-11-09T15:38:43;11.70;99.90
54576;DHT22;40472;53.486;14.542;2022-11-09T15:41:15;11.70;99.90
54576;DHT22;40472;53.486;14.542;2022-11-09T15:43:41;11.70;99.90
54576;DHT22;40472;53.486;14.542;2022-11-09T15:46:12;11.70;99.90
54576;DHT22;40472;53.486;14.542;2022-11-09T15:48:39;11.70;99.90
54576;DHT22;40472;53.486;14.542;2022-11-09T15:51:05;11.70;99.90
54576;DHT22;40472;53.486;14.542;2022-11-09T15:53:31;11.70;99.90
54576;DHT22;40472;53.486;14.542;2022-11-09T15:55:58;11.70;99.90
54576;DHT22;40472;53.486;14.542;2022-11-09T15:58:24;11.60;99.90
54576;DHT22;40472;53.486;14.542;2022-11-09T16:00:50;11.70;99.90
54576;DHT22;40472;53.486;14.542;2022-11-09T16:03:16;11.70;99.90
54576;DHT22;40472;53.486;14.542;2022-11-09T16:05:43;11.70;99.90
54576;DHT22;40472;53.486;14.542;2022-11-09T16:08:09;11.60;99.90
54576;DHT22;40472;53.486;14.542;2022-11-09T16:10:35;11.60;99.90
54576;DHT22;40472;53.486;14.542;2022-11-09T16:13:07;11.50;99.90
54576;DHT22;40472;53.486;14.542;2022-11-09T16:15:34;11.60;99.90
54576;DHT22;40472;53.486;14.542;2022-11-09T16:18:00;11.50;99.90
54576;DHT22;40472;53.486;14.542;2022-11-09T16:20:26;11.50;99.90
54576;DHT22;40472;53.486;14.542;2022-11-09T16:22:52;11.50;99.90
54576;DHT22;40472;53.486;14.542;2022-11-09T16:25:18;11.30;99.90
54576;DHT22;40472;53.486;14.542;2022-11-09T16:27:44;11.30;99.90
54576;DHT22;40472;53.486;14.542;2022-11-09T16:30:11;11.30;99.90
54576;DHT22;40472;53.486;14.542;2022-11-09T16:32:37;11.20;99.90
54576;DHT22;40472;53.486;14.542;2022-11-09T16:35:04;11.20;99.90
54576;DHT22;40472;53.486;14.542;2022-11-09T16:37:34;11.20;99.90
54576;DHT22;40472;53.486;14.542;2022-11-09T16:40:05;11.10;99.90
54576;DHT22;40472;53.486;14.542;2022-11-09T16:42:32;11.00;99.90
54576;DHT22;40472;53.486;14.542;2022-11-09T16:45:03;11.00;99.90
54576;DHT22;40472;53.486;14.542;2022-11-09T16:47:29;11.00;99.90
54576;DHT22;40472;53.486;14.542;2022-11-09T16:49:55;11.00;99.90
54576;DHT22;40472;53.486;14.542;2022-11-09T16:52:20;11.00;99.90
54576;DHT22;40472;53.486;14.542;2022-11-09T16:54:47;11.00;99.90
54576;DHT22;40472;53.486;14.542;2022-11-09T16:57:13;10.90;99.90
54576;DHT22;40472;53.486;14.542;2022-11-09T16:59:39;10.90;99.90
54576;DHT22;40472;53.486;14.542;2022-11-09T17:02:05;10.90;99.90
54576;DHT22;40472;53.486;14.542;2022-11-09T17:04:30;10.90;99.90
54576;DHT22;40472;53.486;14.542;2022-11-09T17:06:56;10.90;99.90
54576;DHT22;40472;53.486;14.542;2022-11-09T17:09:22;10.90;99.90
54576;DHT22;40472;53.486;14.542;2022-11-09T17:11:47;10.90;99.90
54576;DHT22;40472;53.486;14.542;2022-11-09T17:14:13;10.90;99.90
54576;DHT22;40472;53.486;14.542;2022-11-09T17:16:39;10.90;99.90
54576;DHT22;40472;53.486;14.542;2022-11-09T17:19:06;10.80;99.90
54576;DHT22;40472;53.486;14.542;2022-11-09T17:21:32;10.90;99.90
54576;DHT22;40472;53.486;14.542;2022-11-09T17:23:58;10.90;99.90
54576;DHT22;40472;53.486;14.542;2022-11-09T17:26:24;10.90;99.90
54576;DHT22;40472;53.486;14.542;2022-11-09T17:28:51;10.90;99.90